Time;durP1;ratioP1;P1;durP2;ratioP2;P2;SDS_P1;SDS_P2;PMS_P1;PMS_P2;Temp;Humidity;BMP_temperature;BMP_pressure;BME280_temperature;BME280_humidity;BME280_pressure;Samples;Min_cycle;Max_cycle;Signal;HPM_P1;HPM_P2
2023/12/03 00:01:48;;;;;;;12.45;9.55;;;-0.50;99.90;;;;;;5073036;28;20201;-73
2023/12/03 00:04:16;;;;;;;13.85;9.30;;;-0.50;99.90;;;;;;5074201;28;20219;-74
2023/12/03 00:06:44;;;;;;;12.40;9.70;;;-0.60;99.90;;;;;;5073899;28;20208;-73
2023/12/03 00:09:13;;;;;;;13.13;9.73;;;-0.60;99.90;;;;;;5073792;28;20225;-73
2023/12/03 00:11:41;;;;;;;16.98;9.80;;;-0.60;99.90;;;;;;5071433;28;20627;-73
2023/12/03 00:14:09;;;;;;;14.75;9.50;;;-0.60;99.90;;;;;;5073785;28;20296;-73
2023/12/03 00:16:37;;;;;;;14.23;9.98;;;-0.70;99.90;;;;;;5076021;28;20240;-73
2023/12/03 00:19:04;;;;;;;15.57;9.73;;;-0.70;99.90;;;;;;5073584;28;20756;-73
2023/12/03 00:21:33;;;;;;;16.55;10.60;;;-0.70;99.90;;;;;;5072914;28;20225;-73
2023/12/03 00:24:00;;;;;;;15.07;10.27;;;-0.70;99.90;;;;;;5073886;28;20213;-73
2023/12/03 00:26:30;;;;;;;14.80;10.13;;;-0.70;99.90;;;;;;5073544;28;20654;-73
2023/12/03 00:28:58;;;;;;;18.20;10.50;;;-0.70;99.90;;;;;;5073451;28;20274;-73
2023/12/03 00:31:25;;;;;;;14.20;9.40;;;-0.80;99.90;;;;;;5072969;28;20212;-73
2023/12/03 00:33:53;;;;;;;16.10;10.60;;;-0.80;99.90;;;;;;5072991;28;20596;-73
2023/12/03 00:36:21;;;;;;;12.95;9.40;;;-0.80;99.90;;;;;;5075337;28;20258;-73
2023/12/03 00:38:50;;;;;;;15.73;10.50;;;-0.80;99.90;;;;;;5073248;28;20224;-73
2023/12/03 00:41:18;;;;;;;14.98;10.40;;;-0.80;99.90;;;;;;5075114;28;20205;-73
2023/12/03 00:43:47;;;;;;;14.73;10.35;;;-0.80;99.90;;;;;;5072531;28;20232;-74
2023/12/03 00:46:17;;;;;;;14.70;9.65;;;-0.80;99.90;;;;;;5072627;28;20682;-74
2023/12/03 00:48:45;;;;;;;11.98;9.30;;;-0.80;99.90;;;;;;5070991;22;20238;-58
2023/12/03 00:51:13;;;;;;;15.38;9.75;;;-0.80;99.90;;;;;;5033205;28;20199;-58
2023/12/03 00:53:42;;;;;;;14.23;10.15;;;-0.80;99.90;;;;;;5044074;28;20205;-57
2023/12/03 00:56:10;;;;;;;17.05;11.10;;;-0.90;99.90;;;;;;5052910;28;20665;-61
2023/12/03 00:58:38;;;;;;;15.32;10.13;;;-0.90;99.90;;;;;;5053623;28;20275;-60
2023/12/03 01:01:07;;;;;;;19.45;10.55;;;-0.90;99.90;;;;;;5052366;28;20240;-60
2023/12/03 01:03:35;;;;;;;16.05;10.18;;;-0.90;99.90;;;;;;5053249;28;20236;-60
2023/12/03 01:06:03;;;;;;;14.88;10.63;;;-1.00;99.90;;;;;;5044595;22;20326;-60
2023/12/03 01:08:31;;;;;;;17.23;10.93;;;-1.00;99.90;;;;;;5018082;28;20226;-60
2023/12/03 01:10:59;;;;;;;17.15;10.85;;;-1.00;99.90;;;;;;5021575;28;20636;-60
2023/12/03 01:13:27;;;;;;;20.40;11.57;;;-1.10;99.90;;;;;;5011922;28;20671;-60
2023/12/03 01:15:55;;;;;;;17.40;11.02;;;-1.10;99.90;;;;;;5014130;28;20314;-60
2023/12/03 01:18:24;;;;;;;14.35;10.10;;;-1.10;99.90;;;;;;5021003;28;20235;-60
2023/12/03 01:20:52;;;;;;;16.20;10.50;;;-1.10;99.90;;;;;;5012545;28;20222;-59
2023/12/03 01:23:20;;;;;;;16.50;10.68;;;-1.20;99.90;;;;;;5010840;28;20293;-60
2023/12/03 01:25:48;;;;;;;17.02;10.45;;;-1.20;99.90;;;;;;5011544;28;20235;-60
2023/12/03 01:28:19;;;;;;;19.83;11.82;;;-1.20;99.90;;;;;;5013191;28;20208;-60
2023/12/03 01:30:47;;;;;;;14.57;10.25;;;-1.20;99.90;;;;;;5012761;28;20282;-60
2023/12/03 01:33:15;;;;;;;18.65;10.73;;;-1.20;99.90;;;;;;5009271;28;20234;-60
2023/12/03 01:35:45;;;;;;;14.93;9.70;;;-1.20;99.90;;;;;;5009707;28;20380;-60
2023/12/03 01:38:12;;;;;;;17.33;10.68;;;-1.20;99.90;;;;;;5007908;28;20255;-60
2023/12/03 01:40:40;;;;;;;19.13;10.73;;;-1.30;99.90;;;;;;5014454;28;20203;-60
2023/12/03 01:43:09;;;;;;;17.05;11.27;;;-1.20;99.90;;;;;;5012436;28;20207;-60
2023/12/03 01:45:38;;;;;;;19.25;10.88;;;-1.20;99.90;;;;;;5012470;28;20650;-60
2023/12/03 01:48:06;;;;;;;19.83;11.32;;;-1.20;99.90;;;;;;5021432;28;20297;-60
2023/12/03 01:50:34;;;;;;;18.75;11.85;;;-1.20;99.90;;;;;;5020484;28;20211;-60
2023/12/03 01:53:03;;;;;;;16.85;11.30;;;-1.20;99.90;;;;;;5012900;28;20211;-60
2023/12/03 01:55:31;;;;;;;14.73;10.88;;;-1.20;99.90;;;;;;5032288;28;20674;-60
2023/12/03 01:58:00;;;;;;;20.08;11.77;;;-1.20;99.90;;;;;;5023465;28;20213;-60
2023/12/03 02:00:28;;;;;;;19.30;12.13;;;-1.10;99.90;;;;;;5011553;28;20235;-60
2023/12/03 02:02:55;;;;;;;17.05;11.35;;;-1.10;99.90;;;;;;5011149;28;20215;-59
2023/12/03 02:05:23;;;;;;;17.75;11.52;;;-1.10;99.90;;;;;;5012581;28;20254;-60
2023/12/03 02:07:51;;;;;;;19.42;11.98;;;-1.00;99.90;;;;;;5011959;28;20203;-60
2023/12/03 02:10:20;;;;;;;21.45;12.15;;;-1.00;99.90;;;;;;5030836;28;20717;-60
2023/12/03 02:12:48;;;;;;;19.42;12.30;;;-1.00;99.90;;;;;;5011190;28;20298;-60
2023/12/03 02:15:16;;;;;;;19.27;12.73;;;-1.00;99.90;;;;;;5022381;28;20234;-60
2023/12/03 02:17:45;;;;;;;18.95;12.60;;;-1.00;99.90;;;;;;5031510;28;20654;-60
2023/12/03 02:20:13;;;;;;;20.90;12.07;;;-0.90;99.90;;;;;;5031871;28;20238;-60
2023/12/03 02:22:57;;;;;;;18.42;12.77;;;-0.90;99.90;;;;;;5025349;28;20268;-60
2023/12/03 02:25:25;;;;;;;22.58;12.52;;;-0.90;99.90;;;;;;5017252;28;20223;-60
2023/12/03 02:27:53;;;;;;;19.95;12.63;;;-0.90;99.90;;;;;;5011647;28;20657;-60
2023/12/03 02:30:21;;;;;;;19.38;12.23;;;-0.80;99.90;;;;;;5011419;28;20227;-60
2023/12/03 02:32:49;;;;;;;19.77;12.32;;;-0.80;99.90;;;;;;5011466;28;20245;-60
2023/12/03 02:35:17;;;;;;;18.25;12.55;;;-0.80;99.90;;;;;;5009435;28;20322;-60
2023/12/03 02:37:46;;;;;;;20.50;12.90;;;-0.80;99.90;;;;;;5011400;28;20686;-60
2023/12/03 02:40:14;;;;;;;20.38;12.60;;;-0.80;99.90;;;;;;5011742;28;20681;-59
2023/12/03 02:42:42;;;;;;;21.42;13.50;;;-0.80;99.90;;;;;;5024058;28;20249;-60
2023/12/03 02:45:11;;;;;;;20.50;13.10;;;-0.90;99.90;;;;;;5031416;28;20265;-60
2023/12/03 02:47:38;;;;;;;19.70;12.85;;;-0.90;99.90;;;;;;5031145;28;20211;-60
2023/12/03 02:50:07;;;;;;;24.15;13.95;;;-0.90;99.90;;;;;;5031101;28;20222;-60
2023/12/03 02:52:35;;;;;;;24.17;14.65;;;-0.90;99.90;;;;;;5019788;28;20247;-60
2023/12/03 02:55:05;;;;;;;19.15;12.27;;;-0.80;99.90;;;;;;5011733;28;20314;-60
2023/12/03 02:57:33;;;;;;;21.63;12.57;;;-0.80;99.90;;;;;;5011426;28;20310;-60
2023/12/03 03:00:01;;;;;;;21.13;12.93;;;-0.80;99.90;;;;;;5011519;28;20222;-60
2023/12/03 03:02:29;;;;;;;21.85;13.43;;;-0.80;99.90;;;;;;5010251;28;20213;-60
2023/12/03 03:04:57;;;;;;;26.13;13.73;;;-0.80;99.90;;;;;;5018710;28;20716;-60
2023/12/03 03:07:25;;;;;;;26.52;14.52;;;-0.80;99.90;;;;;;5031132;28;20202;-60
2023/12/03 03:09:53;;;;;;;25.95;14.85;;;-0.90;99.90;;;;;;5031280;28;20226;-60
2023/12/03 03:12:22;;;;;;;25.45;14.00;;;-0.90;99.90;;;;;;5024171;28;20272;-60
2023/12/03 03:14:50;;;;;;;21.35;13.93;;;-0.90;99.90;;;;;;5031138;28;20230;-60
2023/12/03 03:17:18;;;;;;;24.60;13.75;;;-0.90;99.90;;;;;;5011110;28;20234;-59
2023/12/03 03:19:45;;;;;;;25.73;14.82;;;-0.90;99.90;;;;;;5025585;28;20202;-60
2023/12/03 03:22:14;;;;;;;23.05;14.85;;;-0.90;99.90;;;;;;5024009;28;20694;-60
2023/12/03 03:24:42;;;;;;;21.73;13.20;;;-1.00;99.90;;;;;;5035228;28;20226;-59
2023/12/03 03:27:10;;;;;;;24.73;14.80;;;-1.00;99.90;;;;;;5034768;28;20210;-60
2023/12/03 03:29:39;;;;;;;26.02;14.50;;;-1.00;99.90;;;;;;5034912;28;20222;-60
2023/12/03 03:32:07;;;;;;;27.88;15.05;;;-1.00;99.90;;;;;;5027555;28;20687;-60
2023/12/03 03:34:35;;;;;;;25.35;15.27;;;-1.00;99.90;;;;;;5034930;28;20787;-60
2023/12/03 03:37:03;;;;;;;24.88;15.07;;;-1.00;99.90;;;;;;5034837;28;20276;-59
2023/12/03 03:39:31;;;;;;;28.95;14.45;;;-1.00;99.90;;;;;;5034888;28;20328;-59
2023/12/03 03:41:59;;;;;;;27.33;15.38;;;-1.00;99.90;;;;;;5027642;28;20229;-60
2023/12/03 03:44:27;;;;;;;27.15;15.73;;;-1.00;99.90;;;;;;5029659;28;20207;-59
2023/12/03 03:46:56;;;;;;;28.90;17.27;;;-1.00;99.90;;;;;;5014768;28;20303;-60
2023/12/03 03:49:24;;;;;;;31.60;15.32;;;-1.10;99.90;;;;;;5014929;28;20257;-60
2023/12/03 03:51:51;;;;;;;24.05;15.18;;;-1.10;99.90;;;;;;5020234;28;20245;-59
2023/12/03 03:54:19;;;;;;;26.55;15.02;;;-1.00;99.90;;;;;;5033153;28;20253;-59
2023/12/03 03:56:47;;;;;;;26.13;15.82;;;-1.00;99.90;;;;;;5034177;28;20235;-60
2023/12/03 03:59:15;;;;;;;24.42;15.63;;;-1.10;99.90;;;;;;5034564;28;20246;-64
2023/12/03 04:01:43;;;;;;;29.08;16.08;;;-1.10;99.90;;;;;;5020532;28;20672;-60
2023/12/03 04:04:13;;;;;;;25.90;15.85;;;-1.00;99.90;;;;;;5012649;28;20286;-60
2023/12/03 04:06:41;;;;;;;30.52;17.17;;;-1.10;99.90;;;;;;5014272;28;20250;-60
2023/12/03 04:09:09;;;;;;;29.45;16.08;;;-1.10;99.90;;;;;;5014809;28;20269;-59
2023/12/03 04:11:40;;;;;;;28.23;16.08;;;-1.00;99.90;;;;;;5023363;28;20230;-60
2023/12/03 04:14:08;;;;;;;31.13;16.38;;;-1.10;99.90;;;;;;5014201;28;20264;-59
2023/12/03 04:16:36;;;;;;;28.13;16.55;;;-1.10;99.90;;;;;;5018067;28;20751;-60
2023/12/03 04:19:05;;;;;;;27.60;16.05;;;-1.10;99.90;;;;;;5034048;28;20206;-61
2023/12/03 04:21:36;;;;;;;30.67;16.10;;;-1.20;99.90;;;;;;5026453;28;20679;-59
2023/12/03 04:24:04;;;;;;;27.60;15.73;;;-1.20;99.90;;;;;;5033980;28;20666;-60
2023/12/03 04:26:33;;;;;;;29.90;16.35;;;-1.20;99.90;;;;;;5033501;28;20712;-60
2023/12/03 04:29:01;;;;;;;27.83;16.15;;;-1.30;99.90;;;;;;5033825;28;20738;-59
2023/12/03 04:31:29;;;;;;;29.50;17.38;;;-1.30;99.90;;;;;;5026100;28;20276;-59
2023/12/03 04:33:57;;;;;;;30.20;17.67;;;-1.30;99.90;;;;;;5033815;28;20242;-60
2023/12/03 04:36:25;;;;;;;30.83;17.50;;;-1.30;99.90;;;;;;5032884;28;20260;-60
2023/12/03 04:38:54;;;;;;;34.15;18.45;;;-1.30;99.90;;;;;;5031603;28;20207;-60
2023/12/03 04:41:22;;;;;;;32.63;18.85;;;-1.30;99.90;;;;;;5015039;28;20284;-60
2023/12/03 04:43:50;;;;;;;29.63;17.75;;;-1.30;99.90;;;;;;5033862;28;20252;-59
2023/12/03 04:46:18;;;;;;;34.13;17.35;;;-1.30;99.90;;;;;;5033357;28;20666;-60
2023/12/03 04:48:46;;;;;;;28.05;16.20;;;-1.40;99.90;;;;;;5033516;28;20207;-60
2023/12/03 04:51:14;;;;;;;28.63;16.35;;;-1.40;99.90;;;;;;5025700;28;20219;-60
2023/12/03 04:53:42;;;;;;;33.35;16.58;;;-1.40;99.90;;;;;;5032715;28;20238;-60
2023/12/03 04:56:11;;;;;;;26.38;15.65;;;-1.40;99.90;;;;;;5013481;28;20293;-60
2023/12/03 04:58:39;;;;;;;26.13;15.85;;;-1.50;99.90;;;;;;5013788;28;20222;-60
2023/12/03 05:01:07;;;;;;;29.20;16.45;;;-1.50;99.90;;;;;;5012705;28;20199;-60
2023/12/03 05:03:35;;;;;;;30.00;17.65;;;-1.50;99.90;;;;;;5017001;28;20291;-60
2023/12/03 05:06:03;;;;;;;30.85;17.25;;;-1.60;99.90;;;;;;5013237;28;20262;-60
2023/12/03 05:08:31;;;;;;;31.55;17.63;;;-1.60;99.90;;;;;;5024565;28;20206;-60
2023/12/03 05:10:59;;;;;;;31.63;18.48;;;-1.60;99.90;;;;;;5026870;28;20286;-60
2023/12/03 05:13:28;;;;;;;29.30;17.73;;;-1.60;99.90;;;;;;5027791;28;20235;-60
2023/12/03 05:15:56;;;;;;;32.65;18.92;;;-1.60;99.90;;;;;;5018259;28;20227;-60
2023/12/03 05:18:24;;;;;;;34.90;18.45;;;-1.60;99.90;;;;;;5014614;28;20204;-60
2023/12/03 05:20:52;;;;;;;30.35;17.50;;;-1.60;99.90;;;;;;5028299;28;20258;-60
2023/12/03 05:23:20;;;;;;;33.58;18.45;;;-1.70;99.90;;;;;;5023491;28;20231;-60
2023/12/03 05:25:47;;;;;;;35.15;19.00;;;-1.70;99.90;;;;;;5015948;28;20335;-60
2023/12/03 05:28:16;;;;;;;35.22;19.40;;;-1.70;99.90;;;;;;5012818;28;20294;-60
2023/12/03 05:30:45;;;;;;;29.95;17.80;;;-1.70;99.90;;;;;;5013251;28;20293;-60
2023/12/03 05:33:13;;;;;;;34.63;19.10;;;-1.70;99.90;;;;;;5029701;28;20236;-60
2023/12/03 05:35:42;;;;;;;34.15;19.40;;;-1.70;99.90;;;;;;5013930;28;20230;-60
2023/12/03 05:38:09;;;;;;;34.35;19.10;;;-1.70;99.90;;;;;;5012809;28;20234;-60
2023/12/03 05:40:37;;;;;;;34.67;19.88;;;-1.70;99.90;;;;;;5012264;28;20665;-59
2023/12/03 05:43:04;;;;;;;35.17;18.38;;;-1.70;99.90;;;;;;5022711;28;20245;-60
2023/12/03 05:45:32;;;;;;;36.85;19.85;;;-1.70;99.90;;;;;;5012356;28;20271;-60
2023/12/03 05:48:01;;;;;;;33.60;18.90;;;-1.80;99.90;;;;;;5017322;28;20284;-60
2023/12/03 05:50:29;;;;;;;35.67;19.60;;;-1.80;99.90;;;;;;5012019;28;20207;-60
2023/12/03 05:52:56;;;;;;;36.97;18.83;;;-1.80;99.90;;;;;;5026601;28;20288;-60
2023/12/03 05:55:24;;;;;;;34.50;18.60;;;-1.80;99.90;;;;;;5032063;28;20801;-60
2023/12/03 05:57:52;;;;;;;32.90;18.52;;;-1.80;99.90;;;;;;5031920;28;20246;-60
2023/12/03 06:00:20;;;;;;;39.30;19.50;;;-1.90;99.90;;;;;;5031433;28;20214;-60
2023/12/03 06:02:48;;;;;;;34.70;18.75;;;-1.90;99.90;;;;;;5024924;28;20739;-60
2023/12/03 06:05:17;;;;;;;32.53;18.77;;;-1.80;99.90;;;;;;5031948;28;20660;-60
2023/12/03 06:07:45;;;;;;;34.58;19.02;;;-1.80;99.90;;;;;;5018906;28;20214;-60
2023/12/03 06:10:13;;;;;;;34.03;18.90;;;-1.90;99.90;;;;;;5012116;28;20207;-60
2023/12/03 06:12:41;;;;;;;32.97;18.50;;;-1.90;99.90;;;;;;5023239;28;20739;-60
2023/12/03 06:15:10;;;;;;;35.25;19.33;;;-1.90;99.90;;;;;;5006690;28;20622;-61
2023/12/03 06:17:38;;;;;;;35.78;19.65;;;-2.00;99.90;;;;;;5008997;28;20207;-60
2023/12/03 06:20:08;;;;;;;35.38;19.38;;;-2.00;99.90;;;;;;5019464;28;20575;-60
2023/12/03 06:22:38;;;;;;;35.63;19.95;;;-2.00;99.90;;;;;;5021539;28;20199;-60
2023/12/03 06:25:06;;;;;;;33.75;19.60;;;-2.00;99.90;;;;;;5012078;28;20231;-59
2023/12/03 06:27:34;;;;;;;34.08;19.50;;;-2.00;99.90;;;;;;5022989;28;20265;-59
2023/12/03 06:30:02;;;;;;;34.35;19.13;;;-2.10;99.90;;;;;;5018339;28;20213;-60
2023/12/03 06:32:30;;;;;;;39.63;19.50;;;-2.10;99.90;;;;;;5021223;28;20237;-60
2023/12/03 06:34:58;;;;;;;34.85;18.98;;;-2.10;99.90;;;;;;5010007;28;20771;-60
2023/12/03 06:37:26;;;;;;;35.65;18.58;;;-2.20;99.90;;;;;;5013084;28;20211;-60
2023/12/03 06:39:55;;;;;;;35.85;19.30;;;-2.20;99.90;;;;;;5029802;28;20235;-60
2023/12/03 06:42:24;;;;;;;33.90;19.02;;;-2.20;99.90;;;;;;5017736;28;20210;-60
2023/12/03 06:44:53;;;;;;;35.45;19.42;;;-2.20;99.90;;;;;;5017931;28;20235;-60
2023/12/03 06:47:21;;;;;;;34.15;19.83;;;-2.20;99.90;;;;;;5011514;28;20215;-60
2023/12/03 06:49:49;;;;;;;36.58;19.95;;;-2.20;99.90;;;;;;5007343;28;20646;-60
2023/12/03 06:52:17;;;;;;;33.35;18.48;;;-2.20;99.90;;;;;;5008421;28;20704;-60
2023/12/03 06:54:45;;;;;;;41.90;20.00;;;-2.20;99.90;;;;;;5011679;28;20261;-60
2023/12/03 06:57:14;;;;;;;38.35;19.20;;;-2.20;99.90;;;;;;5011262;28;20225;-60
2023/12/03 06:59:42;;;;;;;38.80;20.08;;;-2.20;99.90;;;;;;5012076;28;20592;-62
2023/12/03 07:02:10;;;;;;;38.72;20.20;;;-2.20;99.90;;;;;;5016160;28;20231;-61
2023/12/03 07:04:38;;;;;;;35.42;20.00;;;-2.20;99.90;;;;;;5009589;28;20223;-61
2023/12/03 07:07:06;;;;;;;39.17;20.00;;;-2.20;99.90;;;;;;5058322;22;20249;-68
2023/12/03 07:09:34;;;;;;;40.67;20.90;;;-2.20;99.90;;;;;;5055339;28;20237;-69
2023/12/03 07:12:07;;;;;;;40.63;21.67;;;-2.20;99.90;;;;;;5068564;28;20243;-69
2023/12/03 07:14:36;;;;;;;42.97;21.10;;;-2.20;99.90;;;;;;5069462;28;20207;-69
2023/12/03 07:17:04;;;;;;;44.13;21.38;;;-2.20;99.90;;;;;;5071076;28;20247;-69
2023/12/03 07:19:32;;;;;;;41.30;21.33;;;-2.20;99.90;;;;;;5078121;28;20282;-70
2023/12/03 07:22:00;;;;;;;40.25;19.88;;;-2.20;99.90;;;;;;5073851;28;20227;-70
2023/12/03 07:24:29;;;;;;;42.05;20.70;;;-2.20;99.90;;;;;;5073277;28;20205;-71
2023/12/03 07:26:57;;;;;;;40.47;19.73;;;-2.20;99.90;;;;;;5071830;28;20680;-72
2023/12/03 07:29:25;;;;;;;39.78;19.67;;;-2.10;99.90;;;;;;5071122;28;20294;-71
2023/12/03 07:31:54;;;;;;;43.22;21.25;;;-2.20;99.90;;;;;;5070311;28;20252;-71
2023/12/03 07:34:22;;;;;;;40.60;20.67;;;-2.20;99.90;;;;;;5071363;28;20205;-70
2023/12/03 07:36:50;;;;;;;42.03;21.65;;;-2.20;99.90;;;;;;5071215;28;20208;-71
2023/12/03 07:39:19;;;;;;;34.97;19.35;;;-2.10;99.90;;;;;;5070923;28;20217;-69
2023/12/03 07:41:50;;;;;;;43.65;21.10;;;-2.10;99.90;;;;;;5073552;28;20208;-70
2023/12/03 07:44:18;;;;;;;35.97;19.52;;;-2.10;99.90;;;;;;5080212;28;20658;-70
2023/12/03 07:46:46;;;;;;;38.75;19.77;;;-2.00;99.90;;;;;;5073528;28;20263;-70
2023/12/03 07:49:16;;;;;;;41.50;21.73;;;-2.00;99.90;;;;;;5075218;28;20304;-70
2023/12/03 07:51:46;;;;;;;40.13;20.48;;;-2.00;99.90;;;;;;5070536;28;20197;-70
2023/12/03 07:54:14;;;;;;;41.72;20.70;;;-2.00;99.90;;;;;;5071547;28;20647;-70
2023/12/03 07:56:42;;;;;;;40.33;20.17;;;-2.00;99.90;;;;;;5074389;28;20300;-70
2023/12/03 07:59:11;;;;;;;38.47;20.42;;;-2.00;99.90;;;;;;5071171;28;20287;-70
2023/12/03 08:01:39;;;;;;;41.13;21.13;;;-2.00;99.90;;;;;;5069942;28;20267;-71
2023/12/03 08:04:07;;;;;;;39.45;18.60;;;-2.00;99.90;;;;;;5071083;28;20289;-71
2023/12/03 08:06:36;;;;;;;41.25;19.73;;;-2.00;99.90;;;;;;5070677;28;20292;-70
2023/12/03 08:09:05;;;;;;;37.63;20.23;;;-1.90;99.90;;;;;;5077109;28;20205;-70
2023/12/03 08:11:33;;;;;;;38.55;19.70;;;-1.90;99.90;;;;;;5072180;28;20201;-71
2023/12/03 08:14:02;;;;;;;41.15;21.42;;;-1.80;99.90;;;;;;5079110;28;20225;-71
2023/12/03 08:16:30;;;;;;;37.03;20.60;;;-1.80;99.90;;;;;;5062563;28;20206;-70
2023/12/03 08:18:58;;;;;;;38.38;20.30;;;-1.80;99.90;;;;;;5078382;28;20205;-70
2023/12/03 08:21:26;;;;;;;39.95;21.27;;;-1.80;99.90;;;;;;5069267;28;20201;-70
2023/12/03 08:23:55;;;;;;;40.00;20.02;;;-1.70;99.90;;;;;;5076623;28;20206;-69
2023/12/03 08:26:24;;;;;;;37.15;19.25;;;-1.70;99.90;;;;;;5084391;28;20208;-69
2023/12/03 08:28:52;;;;;;;39.08;21.50;;;-1.60;99.90;;;;;;5082049;28;20231;-69
2023/12/03 08:31:22;;;;;;;35.53;19.60;;;-1.50;99.90;;;;;;5076390;28;20232;-70
2023/12/03 08:33:50;;;;;;;39.00;19.75;;;-1.50;99.90;;;;;;5069099;28;20690;-69
2023/12/03 08:36:18;;;;;;;35.25;19.45;;;-1.40;99.90;;;;;;5065743;28;20678;-70
2023/12/03 08:38:46;;;;;;;38.03;19.88;;;-1.40;99.90;;;;;;5070841;28;20232;-70
2023/12/03 08:41:18;;;;;;;33.60;19.67;;;-1.40;99.90;;;;;;5070478;28;20201;-70
2023/12/03 08:43:46;;;;;;;36.65;19.35;;;-1.30;99.90;;;;;;5066437;28;20198;-69
2023/12/03 08:46:13;;;;;;;38.25;19.10;;;-1.30;99.90;;;;;;5074885;28;20262;-70
2023/12/03 08:48:41;;;;;;;36.78;19.70;;;-1.20;99.90;;;;;;5074124;28;20283;-70
2023/12/03 08:51:10;;;;;;;36.17;19.73;;;-1.10;99.90;;;;;;5074792;28;20263;-69
2023/12/03 08:53:38;;;;;;;37.90;19.65;;;-1.10;99.90;;;;;;5073324;28;20225;-69
2023/12/03 08:56:10;;;;;;;40.00;20.15;;;-1.00;99.90;;;;;;5068839;28;20715;-69
2023/12/03 08:58:39;;;;;;;38.47;20.30;;;-0.90;99.90;;;;;;5073215;28;20233;-70
2023/12/03 09:01:07;;;;;;;36.42;19.67;;;-0.80;99.90;;;;;;5073494;28;20278;-70
2023/12/03 09:03:35;;;;;;;34.45;19.70;;;-0.70;99.90;;;;;;5073477;28;20233;-70
2023/12/03 09:06:03;;;;;;;35.22;20.10;;;-0.60;99.90;;;;;;5073175;28;20209;-70
2023/12/03 09:08:31;;;;;;;35.80;19.88;;;-0.50;99.90;;;;;;5073370;28;20284;-69
2023/12/03 09:10:59;;;;;;;38.72;20.48;;;-0.50;99.90;;;;;;5073426;28;20657;-69
2023/12/03 09:13:27;;;;;;;35.53;19.33;;;-0.40;99.90;;;;;;5072967;28;20217;-69
2023/12/03 09:15:57;;;;;;;42.28;19.75;;;-0.30;99.90;;;;;;5073612;28;20237;-69
2023/12/03 09:18:25;;;;;;;37.10;19.17;;;-0.30;99.90;;;;;;5073243;28;20650;-69
2023/12/03 09:20:53;;;;;;;36.30;19.58;;;-0.20;99.90;;;;;;5073086;28;20236;-69
2023/12/03 09:23:21;;;;;;;36.50;20.10;;;-0.10;99.90;;;;;;5065302;28;20187;-69
2023/12/03 09:25:48;;;;;;;35.92;20.10;;;-0.10;99.90;;;;;;5063283;28;20266;-69
2023/12/03 09:28:16;;;;;;;33.17;17.95;;;-0.10;99.90;;;;;;5071386;28;20820;-69
2023/12/03 09:30:44;;;;;;;35.08;19.63;;;0.00;99.90;;;;;;5067520;28;20230;-69
2023/12/03 09:33:14;;;;;;;34.63;18.98;;;0.00;99.90;;;;;;5069504;28;20554;-69
2023/12/03 09:35:42;;;;;;;36.78;20.00;;;0.10;99.90;;;;;;5067835;28;20221;-70
2023/12/03 09:38:10;;;;;;;33.45;19.02;;;0.10;99.90;;;;;;5071393;28;20255;-69
2023/12/03 09:40:37;;;;;;;40.50;20.40;;;0.10;99.90;;;;;;5071426;28;20319;-70
2023/12/03 09:43:05;;;;;;;36.00;20.48;;;0.10;99.90;;;;;;5066461;28;20344;-69
2023/12/03 09:45:33;;;;;;;35.35;19.13;;;0.20;99.90;;;;;;5069462;28;20205;-69
2023/12/03 09:48:02;;;;;;;38.63;19.40;;;0.40;99.90;;;;;;5070955;28;20209;-69
2023/12/03 09:50:31;;;;;;;38.05;19.58;;;0.60;99.90;;;;;;5069605;28;20306;-69
2023/12/03 09:52:59;;;;;;;34.33;18.77;;;1.00;99.90;;;;;;5072251;28;20231;-69
2023/12/03 09:55:27;;;;;;;33.20;18.02;;;1.30;99.90;;;;;;5071246;28;20567;-69
2023/12/03 09:57:56;;;;;;;35.35;18.92;;;1.60;99.90;;;;;;5072275;28;20232;-69
2023/12/03 10:00:24;;;;;;;32.88;18.50;;;1.70;99.90;;;;;;5072318;28;20225;-69
2023/12/03 10:02:53;;;;;;;32.45;18.42;;;1.90;99.90;;;;;;5064117;28;20208;-70
2023/12/03 10:05:21;;;;;;;30.48;18.10;;;1.90;99.90;;;;;;5072462;28;20205;-69
2023/12/03 10:07:50;;;;;;;33.25;17.77;;;2.10;99.90;;;;;;5072297;28;20251;-69
2023/12/03 10:10:19;;;;;;;34.05;18.58;;;2.20;99.90;;;;;;5072249;28;20312;-69
2023/12/03 10:12:48;;;;;;;34.30;18.40;;;2.20;99.90;;;;;;5072300;28;20208;-69
2023/12/03 10:15:16;;;;;;;34.92;17.92;;;2.20;99.90;;;;;;5072301;28;20224;-69
2023/12/03 10:17:44;;;;;;;33.83;19.90;;;2.40;99.90;;;;;;5071980;28;20758;-69
2023/12/03 10:20:22;;;;;;;34.65;18.77;;;2.40;99.90;;;;;;5072486;28;20256;-69
2023/12/03 10:22:52;;;;;;;36.67;19.67;;;2.40;99.90;;;;;;5072273;28;20216;-69
2023/12/03 10:25:26;;;;;;;33.95;18.38;;;2.30;99.90;;;;;;5072046;28;20663;-69
2023/12/03 10:27:54;;;;;;;33.10;18.38;;;2.30;99.90;;;;;;5072267;28;20292;-69
2023/12/03 10:30:23;;;;;;;30.95;18.23;;;2.20;99.90;;;;;;5071979;28;20228;-69
2023/12/03 10:32:50;;;;;;;30.33;17.67;;;2.20;99.90;;;;;;5071035;28;20698;-69
2023/12/03 10:35:20;;;;;;;31.58;18.83;;;2.20;99.90;;;;;;5072619;28;20229;-69
2023/12/03 10:37:49;;;;;;;32.35;18.48;;;2.20;99.90;;;;;;5069451;28;20217;-69
2023/12/03 10:40:19;;;;;;;34.03;18.98;;;2.20;99.90;;;;;;5075501;28;20248;-70
2023/12/03 10:42:47;;;;;;;30.70;17.27;;;2.10;99.90;;;;;;5069818;28;20930;-70
2023/12/03 10:45:15;;;;;;;32.13;17.85;;;2.10;99.90;;;;;;5079075;28;20196;-71
2023/12/03 10:47:44;;;;;;;36.33;18.88;;;2.10;99.90;;;;;;5073352;28;20223;-71
2023/12/03 10:50:12;;;;;;;32.85;17.95;;;2.10;99.90;;;;;;5067350;28;20217;-70
2023/12/03 10:52:41;;;;;;;32.80;18.17;;;2.10;99.90;;;;;;5070275;28;20209;-70
2023/12/03 10:55:09;;;;;;;31.85;18.75;;;2.20;99.90;;;;;;5067121;28;20221;-70
2023/12/03 10:57:44;;;;;;;32.00;17.95;;;2.20;99.90;;;;;;5069438;28;20213;-70
2023/12/03 11:00:12;;;;;;;33.65;17.60;;;2.30;99.90;;;;;;5071696;28;20223;-71
2023/12/03 11:02:42;;;;;;;36.30;18.80;;;2.30;99.90;;;;;;5071623;28;20690;-70
2023/12/03 11:05:12;;;;;;;34.45;18.20;;;2.40;99.90;;;;;;5072657;28;20201;-70
2023/12/03 11:07:40;;;;;;;30.88;17.35;;;2.30;99.90;;;;;;5075712;28;20665;-71
2023/12/03 11:10:09;;;;;;;31.13;18.10;;;2.30;99.90;;;;;;5072013;28;20257;-71
2023/12/03 11:12:38;;;;;;;31.83;18.45;;;2.20;99.90;;;;;;5071650;28;20197;-71
2023/12/03 11:15:09;;;;;;;32.95;17.77;;;2.00;99.90;;;;;;5071313;28;20221;-70
2023/12/03 11:17:40;;;;;;;31.42;18.20;;;2.00;99.90;;;;;;5070997;28;20208;-70
2023/12/03 11:20:10;;;;;;;30.75;17.73;;;2.00;99.90;;;;;;5071177;28;20225;-71
2023/12/03 11:22:49;;;;;;;29.58;17.02;;;2.00;99.90;;;;;;5067901;28;20209;-72
2023/12/03 11:25:20;;;;;;;31.27;18.70;;;2.00;99.90;;;;;;5072395;28;20224;-70
2023/12/03 11:27:48;;;;;;;31.65;16.95;;;2.10;99.90;;;;;;5072863;28;20216;-70
2023/12/03 11:30:18;;;;;;;29.98;17.77;;;2.20;99.90;;;;;;5072084;28;20274;-71
2023/12/03 11:32:46;;;;;;;31.83;16.35;;;2.40;99.90;;;;;;5068676;28;20205;-71
2023/12/03 11:35:16;;;;;;;26.08;16.52;;;2.40;99.90;;;;;;5070802;28;20217;-71
2023/12/03 11:37:45;;;;;;;29.15;17.52;;;2.40;99.90;;;;;;5071176;28;20211;-71
2023/12/03 11:40:13;;;;;;;33.67;17.85;;;2.60;99.90;;;;;;5068102;28;20221;-71
2023/12/03 11:42:45;;;;;;;29.98;17.30;;;2.60;99.90;;;;;;5071080;28;20205;-71
2023/12/03 11:45:22;;;;;;;29.33;17.65;;;2.70;99.90;;;;;;5073688;28;20228;-71
2023/12/03 11:48:06;;;;;;;28.13;16.73;;;2.60;99.90;;;;;;5072744;28;20197;-70
2023/12/03 11:50:36;;;;;;;30.20;17.58;;;2.60;99.90;;;;;;5074684;28;20224;-70
2023/12/03 11:53:05;;;;;;;31.25;16.50;;;2.50;99.90;;;;;;5074112;28;20204;-70
2023/12/03 11:55:34;;;;;;;32.03;17.92;;;2.50;99.90;;;;;;5076710;28;20255;-70
2023/12/03 11:58:04;;;;;;;28.38;17.30;;;2.50;99.90;;;;;;5074253;28;20211;-70
2023/12/03 12:00:33;;;;;;;27.95;16.10;;;2.50;99.90;;;;;;5074656;28;20666;-70
2023/12/03 12:03:02;;;;;;;31.85;16.83;;;2.50;99.90;;;;;;5074049;28;20217;-70
2023/12/03 12:05:30;;;;;;;32.53;16.60;;;2.50;99.90;;;;;;5074285;28;20351;-70
2023/12/03 12:08:00;;;;;;;27.70;15.18;;;2.50;99.90;;;;;;5065332;28;20236;-70
2023/12/03 12:10:28;;;;;;;27.05;16.42;;;2.40;99.90;;;;;;5074793;28;20225;-70
2023/12/03 12:12:57;;;;;;;29.33;15.93;;;2.30;99.90;;;;;;5074691;28;20205;-70
2023/12/03 12:15:25;;;;;;;28.42;15.50;;;2.30;99.90;;;;;;5074876;28;20558;-70
2023/12/03 12:17:54;;;;;;;29.63;15.55;;;2.40;99.90;;;;;;5074505;28;20216;-70
2023/12/03 12:20:23;;;;;;;26.33;16.70;;;2.30;99.90;;;;;;5075000;28;20651;-70
2023/12/03 12:22:51;;;;;;;25.67;15.80;;;2.40;99.90;;;;;;5074529;28;20640;-70
2023/12/03 12:25:19;;;;;;;25.42;15.77;;;2.40;99.90;;;;;;5074525;28;20625;-70
2023/12/03 12:27:48;;;;;;;28.35;15.82;;;2.30;99.90;;;;;;5074731;28;20298;-70
2023/12/03 12:30:17;;;;;;;29.10;16.52;;;2.30;99.90;;;;;;5074629;28;20240;-70
2023/12/03 12:33:02;;;;;;;24.90;16.75;;;2.20;99.90;;;;;;5074201;28;20205;-70
2023/12/03 12:35:32;;;;;;;28.95;15.95;;;2.30;99.90;;;;;;5066204;28;20595;-70
2023/12/03 12:38:01;;;;;;;28.05;17.35;;;2.20;99.90;;;;;;5066208;28;20205;-70